Aérodrome :







RETROUVEZ-NOUS SUR...

 
LOGIN :

S'inscrire | Disclaimer

   EN    FR    IT 

 









Légende :    VFR   VFR Marginal   IFR   IFR Intensif   IFR Très Intensif
Visi : 
Plafond : 
>= 8 km
>= 3000ft
5 à 8 km
1000 à 3000 ft
1500m à 5 km
500 à 1000 ft
800 à 1500m
200 à 500 ft
< 800m
< 200 ft
Symboles :   Orages  Brouillard  Fortes neiges  Fortes précipitations  Vent > 20 kt






- Altitude de l'aérodrome : 244 ft
- Code IATA : YQB


CYQB - Quebec - Jean Lesage Int.

DERNIER METAR :
  • 031000Z 02003KT 30SM FEW030 FEW080 SCT250 14/13 A2990 RMK SC1AC1CI1 SC TR AC TR SLP129 DENSITY ALT 300FT

METARs EXPIRÉS :
  • 030900Z VRB02KT 30SM FEW070 SCT250 14/13 A2989 RMK AC1CI1 AC TR SLP124 DENSITY ALT 300FT
  • 030800Z 04004KT 30SM FEW070 BKN250 15/13 A2988 RMK AC1CI1 AC TR SLP121 DENSITY ALT 300FT

TAF TAF CYQB
Valide du 03 à 06h jusqu'au 04 à 06h UTC


030538Z 0306/0406 04005KT P6SM FEW080
PROB30 0307/0311 21/2SM BR
FM031100 07005KT P6SM BKN200
BECMG 0313/0315 VRB03KT
FM031900 VRB03KT P6SM SCT060 RMK NXT FCST BY 031200Z
ATIS : ENG : +1 418-871-6893 FRA : +1 418-871-6895
FIR CZUL / Amérique du Nord



MET'MAP, la Météo Aéronautique d'un coup d'oeil ! - Copyright ORBIFLY Décembre 2007 - Disclaimer

ORBIFLY MET'MAP TEAM :

Programmation & Développement : Alexandra Zaïnal
Sur une idée originale de : Baudouin d'Aumeries
Assistance à la programmation : Marc-Olivier Méhu
Soutien technique & logistique : Manuel Goepfert

Contact : metmap@orbifly.com




SOURCES & CREDITS :

   NOAA